sensor_id;sensor_type;location;lat;lon;timestamp;pressure;altitude;pressure_sealevel;temperature;humidity
44131;BME280;29792;48.726;9.248;2023-02-03T00:02:07;98147.09;;;5.34;100.00
44131;BME280;29792;48.726;9.248;2023-02-03T00:04:33;98150.38;;;5.36;100.00
44131;BME280;29792;48.726;9.248;2023-02-03T00:06:58;98135.22;;;5.34;100.00
44131;BME280;29792;48.726;9.248;2023-02-03T00:09:24;98145.50;;;5.31;100.00
44131;BME280;29792;48.726;9.248;2023-02-03T00:11:49;98127.00;;;5.28;100.00
44131;BME280;29792;48.726;9.248;2023-02-03T00:14:15;98129.63;;;5.26;100.00
44131;BME280;29792;48.726;9.248;2023-02-03T00:16:40;98120.34;;;5.25;100.00
44131;BME280;29792;48.726;9.248;2023-02-03T00:19:05;98109.38;;;5.25;100.00
44131;BME280;29792;48.726;9.248;2023-02-03T00:21:30;98118.69;;;5.24;100.00
44131;BME280;29792;48.726;9.248;2023-02-03T00:23:56;98127.25;;;5.22;100.00
44131;BME280;29792;48.726;9.248;2023-02-03T00:26:21;98123.13;;;5.19;100.00
44131;BME280;29792;48.726;9.248;2023-02-03T00:28:48;98124.78;;;5.20;100.00
44131;BME280;29792;48.726;9.248;2023-02-03T00:31:19;98131.56;;;5.20;100.00
44131;BME280;29792;48.726;9.248;2023-02-03T00:33:44;98129.03;;;5.20;100.00
44131;BME280;29792;48.726;9.248;2023-02-03T00:36:10;98126.44;;;5.21;100.00
44131;BME280;29792;48.726;9.248;2023-02-03T00:38:35;98129.03;;;5.20;100.00
44131;BME280;29792;48.726;9.248;2023-02-03T00:41:01;98123.13;;;5.19;100.00
44131;BME280;29792;48.726;9.248;2023-02-03T00:43:26;98125.66;;;5.19;100.00
44131;BME280;29792;48.726;9.248;2023-02-03T00:45:52;98120.66;;;5.18;100.00
44131;BME280;29792;48.726;9.248;2023-02-03T00:48:17;98133.44;;;5.16;100.00
44131;BME280;29792;48.726;9.248;2023-02-03T00:50:45;98135.09;;;5.17;100.00
44131;BME280;29792;48.726;9.248;2023-02-03T00:53:11;98146.19;;;5.15;100.00
44131;BME280;29792;48.726;9.248;2023-02-03T00:55:36;98144.47;;;5.15;100.00
44131;BME280;29792;48.726;9.248;2023-02-03T00:58:01;98141.94;;;5.15;100.00
44131;BME280;29792;48.726;9.248;2023-02-03T01:00:27;98146.13;;;5.16;100.00
44131;BME280;29792;48.726;9.248;2023-02-03T01:02:52;98159.66;;;5.17;100.00
44131;BME280;29792;48.726;9.248;2023-02-03T01:05:17;98163.06;;;5.16;100.00
44131;BME280;29792;48.726;9.248;2023-02-03T01:07:42;98150.31;;;5.17;100.00
44131;BME280;29792;48.726;9.248;2023-02-03T01:10:08;98156.22;;;5.18;100.00
44131;BME280;29792;48.726;9.248;2023-02-03T01:12:33;98151.88;;;5.20;100.00
44131;BME280;29792;48.726;9.248;2023-02-03T01:14:59;98161.22;;;5.19;100.00
44131;BME280;29792;48.726;9.248;2023-02-03T01:17:24;98159.66;;;5.17;100.00
44131;BME280;29792;48.726;9.248;2023-02-03T01:19:50;98165.56;;;5.17;100.00
44131;BME280;29792;48.726;9.248;2023-02-03T01:22:15;98147.78;;;5.17;100.00
44131;BME280;29792;48.726;9.248;2023-02-03T01:24:41;98122.38;;;5.17;100.00
44131;BME280;29792;48.726;9.248;2023-02-03T01:27:06;98106.31;;;5.17;100.00
44131;BME280;29792;48.726;9.248;2023-02-03T01:29:31;98107.88;;;5.19;100.00
44131;BME280;29792;48.726;9.248;2023-02-03T01:31:57;98100.25;;;5.19;100.00
44131;BME280;29792;48.726;9.248;2023-02-03T01:34:22;98108.03;;;5.16;100.00
44131;BME280;29792;48.726;9.248;2023-02-03T01:36:47;98124.97;;;5.16;100.00
44131;BME280;29792;48.726;9.248;2023-02-03T01:39:12;98118.25;;;5.15;100.00
44131;BME280;29792;48.726;9.248;2023-02-03T01:41:38;98125.81;;;5.16;100.00
44131;BME280;29792;48.726;9.248;2023-02-03T01:47:01;98113.06;;;5.18;100.00
44131;BME280;29792;48.726;9.248;2023-02-03T01:49:29;98101.09;;;5.20;100.00
44131;BME280;29792;48.726;9.248;2023-02-03T01:51:56;98110.50;;;5.18;100.00
44131;BME280;29792;48.726;9.248;2023-02-03T01:54:26;98105.44;;;5.18;100.00
44131;BME280;29792;48.726;9.248;2023-02-03T01:56:59;98110.50;;;5.18;100.00
44131;BME280;29792;48.726;9.248;2023-02-03T01:59:26;98097.88;;;5.16;100.00
44131;BME280;29792;48.726;9.248;2023-02-03T02:01:53;98110.63;;;5.15;100.00
44131;BME280;29792;48.726;9.248;2023-02-03T02:04:21;98103.06;;;5.13;100.00
44131;BME280;29792;48.726;9.248;2023-02-03T02:06:49;98107.19;;;5.16;100.00
44131;BME280;29792;48.726;9.248;2023-02-03T02:09:15;98094.56;;;5.14;100.00
44131;BME280;29792;48.726;9.248;2023-02-03T02:11:41;98093.63;;;5.17;100.00
44131;BME280;29792;48.726;9.248;2023-02-03T02:14:06;98087.72;;;5.16;100.00
44131;BME280;29792;48.726;9.248;2023-02-03T02:16:48;98080.91;;;5.17;100.00
44131;BME280;29792;48.726;9.248;2023-02-03T02:33:09;98049.88;;;5.10;100.00
44131;BME280;29792;48.726;9.248;2023-02-03T02:38:24;98055.97;;;5.06;100.00
44131;BME280;29792;48.726;9.248;2023-02-03T02:41:09;98059.38;;;5.05;100.00
44131;BME280;29792;48.726;9.248;2023-02-03T02:43:40;98040.72;;;5.06;100.00
44131;BME280;29792;48.726;9.248;2023-02-03T02:46:16;98038.19;;;5.06;100.00
44131;BME280;29792;48.726;9.248;2023-02-03T02:48:57;98022.13;;;5.06;100.00
44131;BME280;29792;48.726;9.248;2023-02-03T02:51:27;98000.94;;;5.07;100.00
44131;BME280;29792;48.726;9.248;2023-02-03T02:53:57;98014.56;;;5.04;100.00
44131;BME280;29792;48.726;9.248;2023-02-03T02:56:26;98043.47;;;5.02;100.00
44131;BME280;29792;48.726;9.248;2023-02-03T02:58:52;98049.38;;;5.02;100.00
44131;BME280;29792;48.726;9.248;2023-02-03T03:01:19;98040.94;;;5.02;100.00
44131;BME280;29792;48.726;9.248;2023-02-03T03:03:44;98045.03;;;5.04;100.00
44131;BME280;29792;48.726;9.248;2023-02-03T03:08:44;98069.44;;;5.08;100.00
44131;BME280;29792;48.726;9.248;2023-02-03T03:11:12;98068.41;;;5.12;100.00
44131;BME280;29792;48.726;9.248;2023-02-03T03:13:41;98050.56;;;5.14;100.00
44131;BME280;29792;48.726;9.248;2023-02-03T03:16:09;98031.00;;;5.16;100.00
44131;BME280;29792;48.726;9.248;2023-02-03T03:18:43;98041.94;;;5.18;100.00
44131;BME280;29792;48.726;9.248;2023-02-03T03:21:16;98053.66;;;5.20;100.00
44131;BME280;29792;48.726;9.248;2023-02-03T03:23:46;98047.66;;;5.23;100.00
44131;BME280;29792;48.726;9.248;2023-02-03T03:29:13;98045.03;;;5.24;100.00
44131;BME280;29792;48.726;9.248;2023-02-03T03:31:35;98037.44;;;5.24;100.00
44131;BME280;29792;48.726;9.248;2023-02-03T03:34:01;98043.28;;;5.26;100.00
44131;BME280;29792;48.726;9.248;2023-02-03T03:36:34;98047.38;;;5.29;100.00
44131;BME280;29792;48.726;9.248;2023-02-03T03:39:22;98053.28;;;5.29;100.00
44131;BME280;29792;48.726;9.248;2023-02-03T03:42:21;98055.81;;;5.29;100.00
44131;BME280;29792;48.726;9.248;2023-02-03T03:44:57;98060.03;;;5.30;100.00
44131;BME280;29792;48.726;9.248;2023-02-03T03:47:32;98058.38;;;5.29;100.00
44131;BME280;29792;48.726;9.248;2023-02-03T03:50:01;98066.88;;;5.28;100.00
44131;BME280;29792;48.726;9.248;2023-02-03T03:52:31;98068.53;;;5.29;100.00
44131;BME280;29792;48.726;9.248;2023-02-03T03:55:00;98088.78;;;5.31;100.00
44131;BME280;29792;48.726;9.248;2023-02-03T03:57:41;98093.03;;;5.30;100.00
44131;BME280;29792;48.726;9.248;2023-02-03T04:00:10;98098.94;;;5.31;100.00
44131;BME280;29792;48.726;9.248;2023-02-03T04:02:39;98099.72;;;5.33;100.00
44131;BME280;29792;48.726;9.248;2023-02-03T04:05:07;98109.06;;;5.32;100.00
44131;BME280;29792;48.726;9.248;2023-02-03T04:07:42;98114.13;;;5.32;100.00
44131;BME280;29792;48.726;9.248;2023-02-03T04:10:15;98125.06;;;5.34;100.00
44131;BME280;29792;48.726;9.248;2023-02-03T04:12:42;98118.28;;;5.35;100.00
44131;BME280;29792;48.726;9.248;2023-02-03T04:15:07;98109.81;;;5.34;100.00
44131;BME280;29792;48.726;9.248;2023-02-03T04:17:33;98107.19;;;5.36;100.00
44131;BME280;29792;48.726;9.248;2023-02-03T04:20:00;98097.94;;;5.35;100.00
44131;BME280;29792;48.726;9.248;2023-02-03T04:22:25;98103.97;;;5.32;100.00
44131;BME280;29792;48.726;9.248;2023-02-03T04:24:50;98092.22;;;5.30;100.00
44131;BME280;29792;48.726;9.248;2023-02-03T04:27:16;98095.69;;;5.27;100.00
44131;BME280;29792;48.726;9.248;2023-02-03T04:29:41;98102.56;;;5.25;100.00
44131;BME280;29792;48.726;9.248;2023-02-03T04:32:06;98100.91;;;5.24;100.00
44131;BME280;29792;48.726;9.248;2023-02-03T04:34:31;98101.03;;;5.21;100.00
44131;BME280;29792;48.726;9.248;2023-02-03T04:36:57;98087.66;;;5.18;100.00
44131;BME280;29792;48.726;9.248;2023-02-03T04:39:22;98085.22;;;5.15;100.00
44131;BME280;29792;48.726;9.248;2023-02-03T04:41:47;98081.91;;;5.13;100.00
44131;BME280;29792;48.726;9.248;2023-02-03T04:44:12;98077.88;;;5.09;100.00
44131;BME280;29792;48.726;9.248;2023-02-03T04:46:38;98073.69;;;5.08;100.00
44131;BME280;29792;48.726;9.248;2023-02-03T04:49:03;98080.56;;;5.04;100.00
44131;BME280;29792;48.726;9.248;2023-02-03T04:51:28;98081.47;;;5.03;100.00
44131;BME280;29792;48.726;9.248;2023-02-03T04:53:54;98083.25;;;5.01;100.00
44131;BME280;29792;48.726;9.248;2023-02-03T04:56:19;98096.84;;;5.00;100.00
44131;BME280;29792;48.726;9.248;2023-02-03T04:58:44;98092.66;;;4.99;100.00
44131;BME280;29792;48.726;9.248;2023-02-03T05:01:09;98091.03;;;4.96;100.00
44131;BME280;29792;48.726;9.248;2023-02-03T05:03:35;98074.16;;;4.95;100.00
44131;BME280;29792;48.726;9.248;2023-02-03T05:06:00;98062.28;;;4.96;100.00
44131;BME280;29792;48.726;9.248;2023-02-03T05:08:27;98067.47;;;4.94;100.00
44131;BME280;29792;48.726;9.248;2023-02-03T05:10:52;98057.34;;;4.93;100.00
44131;BME280;29792;48.726;9.248;2023-02-03T05:13:18;98060.78;;;4.92;100.00
44131;BME280;29792;48.726;9.248;2023-02-03T05:15:43;98061.59;;;4.92;100.00
44131;BME280;29792;48.726;9.248;2023-02-03T05:18:08;98074.34;;;4.91;100.00
44131;BME280;29792;48.726;9.248;2023-02-03T05:20:33;98081.16;;;4.90;100.00
44131;BME280;29792;48.726;9.248;2023-02-03T05:22:59;98086.22;;;4.90;100.00
44131;BME280;29792;48.726;9.248;2023-02-03T05:25:25;98086.16;;;4.92;100.00
44131;BME280;29792;48.726;9.248;2023-02-03T05:27:50;98083.56;;;4.93;100.00
44131;BME280;29792;48.726;9.248;2023-02-03T05:30:15;98083.56;;;4.93;100.00
44131;BME280;29792;48.726;9.248;2023-02-03T05:32:41;98072.53;;;4.94;100.00
44131;BME280;29792;48.726;9.248;2023-02-03T05:35:06;98081.88;;;4.94;100.00
44131;BME280;29792;48.726;9.248;2023-02-03T05:37:31;98084.47;;;4.92;100.00
44131;BME280;29792;48.726;9.248;2023-02-03T05:39:57;98096.25;;;4.93;100.00
44131;BME280;29792;48.726;9.248;2023-02-03T05:42:46;98106.53;;;4.90;100.00
44131;BME280;29792;48.726;9.248;2023-02-03T05:45:11;98109.84;;;4.92;100.00
44131;BME280;29792;48.726;9.248;2023-02-03T05:47:37;98101.34;;;4.93;100.00
44131;BME280;29792;48.726;9.248;2023-02-03T05:50:02;98092.13;;;4.91;100.00
44131;BME280;29792;48.726;9.248;2023-02-03T05:52:28;98089.66;;;4.89;100.00
44131;BME280;29792;48.726;9.248;2023-02-03T05:54:53;98085.59;;;4.85;100.00
44131;BME280;29792;48.726;9.248;2023-02-03T05:57:18;98088.88;;;4.87;100.00
44131;BME280;29792;48.726;9.248;2023-02-03T05:59:44;98087.16;;;4.88;100.00
44131;BME280;29792;48.726;9.248;2023-02-03T06:02:09;98086.34;;;4.87;100.00
44131;BME280;29792;48.726;9.248;2023-02-03T06:04:34;98082.84;;;4.90;100.00
44131;BME280;29792;48.726;9.248;2023-02-03T06:06:59;98072.66;;;4.91;100.00
44131;BME280;29792;48.726;9.248;2023-02-03T06:09:24;98072.69;;;4.90;100.00
44131;BME280;29792;48.726;9.248;2023-02-03T06:11:50;98079.44;;;4.91;100.00
44131;BME280;29792;48.726;9.248;2023-02-03T06:14:15;98087.06;;;4.91;100.00
44131;BME280;29792;48.726;9.248;2023-02-03T06:16:40;98075.97;;;4.93;100.00
44131;BME280;29792;48.726;9.248;2023-02-03T06:19:05;98069.16;;;4.94;100.00
44131;BME280;29792;48.726;9.248;2023-02-03T06:21:31;98068.34;;;4.93;100.00
44131;BME280;29792;48.726;9.248;2023-02-03T06:23:56;98069.03;;;4.97;100.00
44131;BME280;29792;48.726;9.248;2023-02-03T06:26:21;98069.09;;;4.95;100.00
44131;BME280;29792;48.726;9.248;2023-02-03T06:28:47;98061.47;;;4.95;100.00
44131;BME280;29792;48.726;9.248;2023-02-03T06:31:12;98073.34;;;4.95;100.00
44131;BME280;29792;48.726;9.248;2023-02-03T06:33:37;98084.47;;;4.92;100.00
44131;BME280;29792;48.726;9.248;2023-02-03T06:36:02;98071.81;;;4.91;100.00
44131;BME280;29792;48.726;9.248;2023-02-03T06:38:28;98064.22;;;4.91;100.00
44131;BME280;29792;48.726;9.248;2023-02-03T06:40:53;98076.13;;;4.89;100.00
44131;BME280;29792;48.726;9.248;2023-02-03T06:43:18;98069.41;;;4.88;100.00
44131;BME280;29792;48.726;9.248;2023-02-03T06:45:44;98061.78;;;4.88;100.00
44131;BME280;29792;48.726;9.248;2023-02-03T06:48:11;98062.66;;;4.87;100.00
44131;BME280;29792;48.726;9.248;2023-02-03T06:50:36;98060.13;;;4.87;100.00
44131;BME280;29792;48.726;9.248;2023-02-03T06:53:02;98049.22;;;4.85;100.00
44131;BME280;29792;48.726;9.248;2023-02-03T06:55:27;98051.78;;;4.85;100.00
44131;BME280;29792;48.726;9.248;2023-02-03T06:57:52;98040.84;;;4.83;100.00
44131;BME280;29792;48.726;9.248;2023-02-03T07:00:18;98039.31;;;4.79;100.00
44131;BME280;29792;48.726;9.248;2023-02-03T07:02:44;98043.59;;;4.78;100.00
44131;BME280;29792;48.726;9.248;2023-02-03T07:05:10;98041.09;;;4.77;100.00
44131;BME280;29792;48.726;9.248;2023-02-03T07:07:36;98046.19;;;4.77;100.00
44131;BME280;29792;48.726;9.248;2023-02-03T07:10:04;98054.66;;;4.76;100.00
44131;BME280;29792;48.726;9.248;2023-02-03T07:12:30;98053.03;;;4.75;100.00
44131;BME280;29792;48.726;9.248;2023-02-03T07:14:55;98052.13;;;4.76;100.00
44131;BME280;29792;48.726;9.248;2023-02-03T07:17:21;98052.06;;;4.77;100.00
44131;BME280;29792;48.726;9.248;2023-02-03T07:19:46;98052.13;;;4.76;100.00
44131;BME280;29792;48.726;9.248;2023-02-03T07:22:11;98048.72;;;4.77;100.00
44131;BME280;29792;48.726;9.248;2023-02-03T07:24:36;98042.75;;;4.78;100.00
44131;BME280;29792;48.726;9.248;2023-02-03T07:27:02;98039.31;;;4.79;100.00
44131;BME280;29792;48.726;9.248;2023-02-03T07:29:27;98030.81;;;4.80;100.00
44131;BME280;29792;48.726;9.248;2023-02-03T07:31:53;98036.72;;;4.80;100.00
44131;BME280;29792;48.726;9.248;2023-02-03T07:34:18;98043.50;;;4.80;100.00
44131;BME280;29792;48.726;9.248;2023-02-03T07:36:43;98051.00;;;4.83;100.00
44131;BME280;29792;48.726;9.248;2023-02-03T07:39:08;98068.75;;;4.83;100.00
44131;BME280;29792;48.726;9.248;2023-02-03T07:41:34;98059.56;;;4.80;100.00
44131;BME280;29792;48.726;9.248;2023-02-03T07:43:59;98058.03;;;4.76;100.00
44131;BME280;29792;48.726;9.248;2023-02-03T07:46:24;98062.22;;;4.77;100.00
44131;BME280;29792;48.726;9.248;2023-02-03T07:48:49;98064.63;;;4.80;100.00
44131;BME280;29792;48.726;9.248;2023-02-03T07:51:15;98070.41;;;4.84;100.00
44131;BME280;29792;48.726;9.248;2023-02-03T07:53:40;98079.81;;;4.82;100.00
44131;BME280;29792;48.726;9.248;2023-02-03T07:56:05;98089.13;;;4.81;100.00
44131;BME280;29792;48.726;9.248;2023-02-03T07:58:31;98092.44;;;4.83;100.00
44131;BME280;29792;48.726;9.248;2023-02-03T08:00:57;98096.63;;;4.84;100.00
44131;BME280;29792;48.726;9.248;2023-02-03T08:03:23;98093.13;;;4.87;100.00
44131;BME280;29792;48.726;9.248;2023-02-03T08:05:48;98087.06;;;4.91;100.00
44131;BME280;29792;48.726;9.248;2023-02-03T08:08:14;98102.09;;;4.95;100.00
44131;BME280;29792;48.726;9.248;2023-02-03T08:10:39;98108.72;;;4.99;100.00
44131;BME280;29792;48.726;9.248;2023-02-03T08:13:04;98111.19;;;5.01;100.00
44131;BME280;29792;48.726;9.248;2023-02-03T08:15:30;98108.50;;;5.04;100.00
44131;BME280;29792;48.726;9.248;2023-02-03T08:17:55;98112.66;;;5.07;100.00
44131;BME280;29792;48.726;9.248;2023-02-03T08:20:20;98111.00;;;5.06;100.00
44131;BME280;29792;48.726;9.248;2023-02-03T08:22:46;98118.66;;;5.04;100.00
44131;BME280;29792;48.726;9.248;2023-02-03T08:25:12;98123.63;;;5.07;100.00
44131;BME280;29792;48.726;9.248;2023-02-03T08:27:38;98112.59;;;5.08;100.00
44131;BME280;29792;48.726;9.248;2023-02-03T08:30:05;98117.63;;;5.10;100.00
44131;BME280;29792;48.726;9.248;2023-02-03T08:32:32;98123.44;;;5.12;100.00
44131;BME280;29792;48.726;9.248;2023-02-03T08:34:57;98120.78;;;5.15;100.00
44131;BME280;29792;48.726;9.248;2023-02-03T08:37:23;98109.63;;;5.19;100.00
44131;BME280;29792;48.726;9.248;2023-02-03T08:39:49;98107.72;;;5.24;100.00
44131;BME280;29792;48.726;9.248;2023-02-03T08:42:14;98116.28;;;5.21;100.00
44131;BME280;29792;48.726;9.248;2023-02-03T08:44:39;98117.16;;;5.20;100.00
44131;BME280;29792;48.726;9.248;2023-02-03T08:47:05;98119.00;;;5.17;100.00
44131;BME280;29792;48.726;9.248;2023-02-03T08:49:31;98127.63;;;5.13;100.00
44131;BME280;29792;48.726;9.248;2023-02-03T08:51:57;98137.72;;;5.14;100.00
44131;BME280;29792;48.726;9.248;2023-02-03T08:54:24;98129.81;;;5.22;100.00
44131;BME280;29792;48.726;9.248;2023-02-03T08:56:50;98130.31;;;5.30;100.00
44131;BME280;29792;48.726;9.248;2023-02-03T08:59:16;98104.75;;;5.34;100.00
44131;BME280;29792;48.726;9.248;2023-02-03T09:01:41;98111.44;;;5.35;100.00
44131;BME280;29792;48.726;9.248;2023-02-03T09:04:12;98109.72;;;5.36;100.00
44131;BME280;29792;48.726;9.248;2023-02-03T09:06:38;98127.50;;;5.36;100.00
44131;BME280;29792;48.726;9.248;2023-02-03T09:09:04;98123.25;;;5.36;100.00
44131;BME280;29792;48.726;9.248;2023-02-03T09:11:29;98131.72;;;5.37;100.00
44131;BME280;29792;48.726;9.248;2023-02-03T09:13:54;98124.81;;;5.41;100.00
44131;BME280;29792;48.726;9.248;2023-02-03T09:16:22;98119.56;;;5.44;100.00
44131;BME280;29792;48.726;9.248;2023-02-03T09:18:48;98114.38;;;5.47;100.00
44131;BME280;29792;48.726;9.248;2023-02-03T09:21:14;98113.38;;;5.51;100.00
44131;BME280;29792;48.726;9.248;2023-02-03T09:23:43;98104.59;;;5.58;100.00
44131;BME280;29792;48.726;9.248;2023-02-03T09:26:11;98095.00;;;5.64;100.00
44131;BME280;29792;48.726;9.248;2023-02-03T09:28:37;98096.09;;;5.78;100.00
44131;BME280;29792;48.726;9.248;2023-02-03T09:31:07;98090.59;;;5.88;100.00
44131;BME280;29792;48.726;9.248;2023-02-03T09:33:34;98103.25;;;5.90;100.00
44131;BME280;29792;48.726;9.248;2023-02-03T09:36:00;98111.47;;;5.95;100.00
44131;BME280;29792;48.726;9.248;2023-02-03T09:38:26;98116.03;;;6.07;100.00
44131;BME280;29792;48.726;9.248;2023-02-03T09:40:54;98118.91;;;6.18;100.00
44131;BME280;29792;48.726;9.248;2023-02-03T09:43:36;98110.34;;;6.21;100.00
44131;BME280;29792;48.726;9.248;2023-02-03T09:46:09;98112.75;;;6.24;100.00
44131;BME280;29792;48.726;9.248;2023-02-03T09:48:42;98120.94;;;6.30;100.00
44131;BME280;29792;48.726;9.248;2023-02-03T09:51:18;98124.91;;;6.36;100.00
44131;BME280;29792;48.726;9.248;2023-02-03T09:53:50;98116.78;;;6.28;100.00
44131;BME280;29792;48.726;9.248;2023-02-03T09:56:31;98115.06;;;6.28;100.00
44131;BME280;29792;48.726;9.248;2023-02-03T09:58:58;98121.75;;;6.31;100.00
44131;BME280;29792;48.726;9.248;2023-02-03T10:01:44;98109.03;;;6.31;100.00
44131;BME280;29792;48.726;9.248;2023-02-03T10:06:44;98105.78;;;6.27;100.00
44131;BME280;29792;48.726;9.248;2023-02-03T10:14:50;98099.22;;;6.23;100.00
44131;BME280;29792;48.726;9.248;2023-02-03T10:17:33;98100.94;;;6.23;100.00
44131;BME280;29792;48.726;9.248;2023-02-03T10:22:43;98115.69;;;6.33;100.00
44131;BME280;29792;48.726;9.248;2023-02-03T10:27:37;98119.75;;;6.37;100.00
44131;BME280;29792;48.726;9.248;2023-02-03T10:30:16;98113.84;;;6.37;100.00
44131;BME280;29792;48.726;9.248;2023-02-03T10:32:43;98104.25;;;6.42;100.00
44131;BME280;29792;48.726;9.248;2023-02-03T10:35:12;98109.94;;;6.48;100.00
44131;BME280;29792;48.726;9.248;2023-02-03T10:37:50;98126.69;;;6.53;100.00
44131;BME280;29792;48.726;9.248;2023-02-03T10:40:17;98112.25;;;6.53;100.00
44131;BME280;29792;48.726;9.248;2023-02-03T10:42:46;98110.59;;;6.52;100.00
44131;BME280;29792;48.726;9.248;2023-02-03T10:45:33;98112.31;;;6.51;100.00
44131;BME280;29792;48.726;9.248;2023-02-03T10:48:02;98115.00;;;6.48;100.00
44131;BME280;29792;48.726;9.248;2023-02-03T10:50:28;98099.66;;;6.50;100.00
44131;BME280;29792;48.726;9.248;2023-02-03T10:55:50;98078.41;;;6.51;100.00
44131;BME280;29792;48.726;9.248;2023-02-03T10:58:25;98073.31;;;6.51;100.00
44131;BME280;29792;48.726;9.248;2023-02-03T11:01:13;98073.25;;;6.53;100.00
44131;BME280;29792;48.726;9.248;2023-02-03T11:03:37;98065.31;;;6.59;100.00
44131;BME280;29792;48.726;9.248;2023-02-03T11:06:09;98066.53;;;6.69;100.00
44131;BME280;29792;48.726;9.248;2023-02-03T11:08:37;98064.22;;;6.81;100.00
44131;BME280;29792;48.726;9.248;2023-02-03T11:11:08;98057.78;;;6.92;100.00
44131;BME280;29792;48.726;9.248;2023-02-03T11:13:34;98063.31;;;7.00;100.00
44131;BME280;29792;48.726;9.248;2023-02-03T11:16:12;98075.03;;;7.04;100.00
44131;BME280;29792;48.726;9.248;2023-02-03T11:19:03;98065.75;;;7.03;100.00
44131;BME280;29792;48.726;9.248;2023-02-03T11:24:20;98059.88;;;7.01;100.00
44131;BME280;29792;48.726;9.248;2023-02-03T11:26:58;98049.63;;;7.02;100.00
44131;BME280;29792;48.726;9.248;2023-02-03T11:29:29;98054.03;;;6.99;100.00
44131;BME280;29792;48.726;9.248;2023-02-03T11:31:57;98055.84;;;6.97;100.00
44131;BME280;29792;48.726;9.248;2023-02-03T11:34:33;98059.44;;;6.93;100.00
44131;BME280;29792;48.726;9.248;2023-02-03T11:37:23;98046.94;;;6.88;100.00
44131;BME280;29792;48.726;9.248;2023-02-03T11:39:55;98035.09;;;6.87;100.00
44131;BME280;29792;48.726;9.248;2023-02-03T11:42:23;98032.47;;;6.88;100.00
44131;BME280;29792;48.726;9.248;2023-02-03T11:44:49;98041.41;;;6.97;100.00
44131;BME280;29792;48.726;9.248;2023-02-03T11:47:16;98033.44;;;7.03;100.00
44131;BME280;29792;48.726;9.248;2023-02-03T11:50:10;98034.94;;;7.07;100.00
44131;BME280;29792;48.726;9.248;2023-02-03T11:52:46;98030.44;;;7.12;100.00
44131;BME280;29792;48.726;9.248;2023-02-03T11:55:20;98034.78;;;7.10;100.00
44131;BME280;29792;48.726;9.248;2023-02-03T12:06:39;98010.13;;;7.11;100.00
44131;BME280;29792;48.726;9.248;2023-02-03T12:09:37;97998.97;;;7.13;100.00
44131;BME280;29792;48.726;9.248;2023-02-03T12:15:06;98008.25;;;7.14;100.00
44131;BME280;29792;48.726;9.248;2023-02-03T12:23:29;98004.88;;;7.14;100.00
44131;BME280;29792;48.726;9.248;2023-02-03T12:26:13;98004.06;;;7.13;100.00
44131;BME280;29792;48.726;9.248;2023-02-03T12:28:45;98007.28;;;7.17;100.00
44131;BME280;29792;48.726;9.248;2023-02-03T12:31:35;98005.56;;;7.17;100.00
44131;BME280;29792;48.726;9.248;2023-02-03T12:34:11;98011.47;;;7.18;100.00
44131;BME280;29792;48.726;9.248;2023-02-03T12:36:42;98005.47;;;7.19;100.00
44131;BME280;29792;48.726;9.248;2023-02-03T12:39:29;97993.63;;;7.18;100.00
44131;BME280;29792;48.726;9.248;2023-02-03T12:44:54;97986.81;;;7.18;100.00
44131;BME280;29792;48.726;9.248;2023-02-03T12:49:55;97966.59;;;7.15;100.00
44131;BME280;29792;48.726;9.248;2023-02-03T12:52:41;97956.47;;;7.14;100.00
44131;BME280;29792;48.726;9.248;2023-02-03T12:58:09;97943.00;;;7.12;100.00
44131;BME280;29792;48.726;9.248;2023-02-03T13:03:31;97922.91;;;7.06;100.00
44131;BME280;29792;48.726;9.248;2023-02-03T13:06:10;97924.56;;;7.07;100.00
44131;BME280;29792;48.726;9.248;2023-02-03T13:08:56;97941.50;;;7.08;100.00
44131;BME280;29792;48.726;9.248;2023-02-03T13:11:37;97947.41;;;7.08;100.00
44131;BME280;29792;48.726;9.248;2023-02-03T13:14:13;97933.78;;;7.09;100.00
44131;BME280;29792;48.726;9.248;2023-02-03T13:16:43;97926.91;;;7.11;100.00
44131;BME280;29792;48.726;9.248;2023-02-03T13:19:21;97920.06;;;7.12;100.00
44131;BME280;29792;48.726;9.248;2023-02-03T13:21:50;97920.00;;;7.13;100.00
44131;BME280;29792;48.726;9.248;2023-02-03T13:24:16;97920.91;;;7.12;100.00
44131;BME280;29792;48.726;9.248;2023-02-03T13:30:02;97925.16;;;7.12;100.00
44131;BME280;29792;48.726;9.248;2023-02-03T13:38:37;97898.88;;;7.11;100.00
44131;BME280;29792;48.726;9.248;2023-02-03T13:43:40;97899.69;;;7.12;100.00
44131;BME280;29792;48.726;9.248;2023-02-03T13:46:20;97895.50;;;7.11;100.00
44131;BME280;29792;48.726;9.248;2023-02-03T13:48:47;97895.50;;;7.11;100.00
44131;BME280;29792;48.726;9.248;2023-02-03T13:51:16;97895.31;;;7.14;100.00
44131;BME280;29792;48.726;9.248;2023-02-03T13:53:44;97885.22;;;7.12;100.00
44131;BME280;29792;48.726;9.248;2023-02-03T13:56:19;97880.97;;;7.13;100.00
44131;BME280;29792;48.726;9.248;2023-02-03T13:59:05;97886.13;;;7.11;100.00
44131;BME280;29792;48.726;9.248;2023-02-03T14:01:50;97889.50;;;7.12;100.00
44131;BME280;29792;48.726;9.248;2023-02-03T14:11:44;97885.88;;;7.16;100.00
44131;BME280;29792;48.726;9.248;2023-02-03T14:16:36;97887.38;;;7.20;100.00
44131;BME280;29792;48.726;9.248;2023-02-03T14:19:02;97895.03;;;7.20;100.00
44131;BME280;29792;48.726;9.248;2023-02-03T14:21:36;97894.94;;;7.21;100.00
44131;BME280;29792;48.726;9.248;2023-02-03T14:24:05;97902.66;;;7.20;100.00
44131;BME280;29792;48.726;9.248;2023-02-03T14:26:36;97903.38;;;7.22;100.00
44131;BME280;29792;48.726;9.248;2023-02-03T14:29:03;97917.63;;;7.26;100.00
44131;BME280;29792;48.726;9.248;2023-02-03T14:31:29;97901.44;;;7.27;100.00
44131;BME280;29792;48.726;9.248;2023-02-03T14:34:03;97908.19;;;7.28;100.00
44131;BME280;29792;48.726;9.248;2023-02-03T14:36:41;97899.72;;;7.27;100.00
44131;BME280;29792;48.726;9.248;2023-02-03T14:41:58;97887.13;;;7.24;100.00
44131;BME280;29792;48.726;9.248;2023-02-03T14:44:52;97898.22;;;7.23;100.00
44131;BME280;29792;48.726;9.248;2023-02-03T14:50:08;97896.56;;;7.22;100.00